createdAt,value
2022-12-13T00:51:39.653Z,34.40
2022-12-13T01:52:31.483Z,43.38
2022-12-13T01:55:43.237Z,42.00
2022-12-13T02:29:30.548Z,35.60
2022-12-13T02:32:44.722Z,35.67
2022-12-13T03:32:41.553Z,37.08
2022-12-13T03:47:50.529Z,37.60
2022-12-13T03:57:37.353Z,33.67
2022-12-13T04:00:53.356Z,36.75
2022-12-13T04:11:13.372Z,37.15
2022-12-13T04:14:22.322Z,36.00
2022-12-13T04:17:19.002Z,34.63
2022-12-13T04:20:05.770Z,32.40
2022-12-13T04:23:09.822Z,32.70
2022-12-13T04:26:24.758Z,34.08
2022-12-13T04:29:08.304Z,34.47
2022-12-13T04:32:26.831Z,35.75
2022-12-13T04:35:47.496Z,37.03
2022-12-13T04:38:29.771Z,32.95
2022-12-13T04:41:43.498Z,32.58
2022-12-13T04:44:46.245Z,35.30
2022-12-13T04:50:56.375Z,31.63
2022-12-13T04:57:31.524Z,27.60
2022-12-13T05:01:16.353Z,30.45
2022-12-13T05:03:33.798Z,29.60
2022-12-13T05:06:44.728Z,29.83
2022-12-13T05:09:30.243Z,30.35
2022-12-13T05:12:44.016Z,29.83
2022-12-13T05:15:35.820Z,32.20
2022-12-13T07:15:45.444Z,34.78
2022-12-13T07:19:35.621Z,34.10
2022-12-13T07:30:44.828Z,31.73
2022-12-13T07:56:04.483Z,41.42
2022-12-13T08:14:03.793Z,41.30
2022-12-13T09:42:01.101Z,25.85
2022-12-13T09:44:44.009Z,26.30
2022-12-13T09:47:23.985Z,26.13
2022-12-13T09:49:53.876Z,25.08
2022-12-13T09:52:26.032Z,26.00
2022-12-13T09:55:02.148Z,24.88
2022-12-13T09:57:34.373Z,24.52
2022-12-13T10:00:06.606Z,24.02
2022-12-13T10:02:45.625Z,25.27
2022-12-13T10:05:22.281Z,24.60
2022-12-13T10:07:55.967Z,25.60
2022-12-13T10:10:23.847Z,25.90
2022-12-13T10:12:59.358Z,23.65
2022-12-13T10:15:28.361Z,23.42
2022-12-13T10:17:56.683Z,21.80
2022-12-13T10:20:29.012Z,21.90
2022-12-13T10:25:50.734Z,22.10
2022-12-13T10:28:27.402Z,21.45
2022-12-13T10:30:56.182Z,22.63
2022-12-13T10:33:27.103Z,21.08
2022-12-13T10:36:06.882Z,22.40
2022-12-13T10:38:38.363Z,22.35
2022-12-13T10:41:30.899Z,22.17
2022-12-13T10:44:16.040Z,21.90
2022-12-13T10:46:50.121Z,20.30
2022-12-13T10:49:20.888Z,21.90
2022-12-13T10:51:50.359Z,20.92
2022-12-13T10:54:23.314Z,21.40
2022-12-13T10:56:53.998Z,19.45
2022-12-13T10:59:32.051Z,21.67
2022-12-13T11:02:01.746Z,20.15
2022-12-13T11:04:31.655Z,21.35
2022-12-13T11:07:01.228Z,21.20
2022-12-13T11:09:39.102Z,21.40
2022-12-13T11:12:15.226Z,19.92
2022-12-13T11:14:56.698Z,18.80
2022-12-13T11:17:27.550Z,20.55
2022-12-13T11:19:58.602Z,20.52
2022-12-13T11:22:29.678Z,20.10
2022-12-13T11:25:02.770Z,22.20
2022-12-13T11:27:48.107Z,20.00
2022-12-13T11:30:37.453Z,19.52
2022-12-13T11:33:15.631Z,19.45
2022-12-13T11:35:58.865Z,18.80
2022-12-13T11:38:34.827Z,19.85
2022-12-13T11:41:12.743Z,20.40
2022-12-13T11:44:04.673Z,21.60
2022-12-13T11:46:42.568Z,20.60
2022-12-13T11:49:20.453Z,19.55
2022-12-13T11:51:53.252Z,21.42
2022-12-13T11:54:30.756Z,21.38
2022-12-13T11:57:01.125Z,20.65
2022-12-13T11:59:42.319Z,20.90
2022-12-13T12:02:20.662Z,20.33
2022-12-13T12:04:58.141Z,20.02
2022-12-13T12:07:35.719Z,21.27
2022-12-13T12:10:16.622Z,20.50
2022-12-13T12:12:51.725Z,25.08
2022-12-13T12:15:27.104Z,40.88
2022-12-13T12:17:57.218Z,19.80
2022-12-13T12:20:48.350Z,20.25
2022-12-13T12:23:24.410Z,24.20
2022-12-13T12:25:56.958Z,24.05
2022-12-13T12:28:35.899Z,23.80
2022-12-13T12:31:20.130Z,21.17
2022-12-13T12:34:07.286Z,23.65
2022-12-13T12:36:50.416Z,20.10
2022-12-13T12:39:40.551Z,37.58
2022-12-13T12:42:26.880Z,24.70
2022-12-13T12:45:54.756Z,33.05
2022-12-13T12:48:52.003Z,22.50
2022-12-13T12:51:22.410Z,20.58
2022-12-13T12:53:55.840Z,23.85
2022-12-13T12:56:39.893Z,23.90
2022-12-13T12:59:16.509Z,24.98
2022-12-13T13:01:56.295Z,24.48
2022-12-13T13:04:30.897Z,24.85
2022-12-13T13:07:23.367Z,24.98
2022-12-13T13:09:54.700Z,27.45
2022-12-13T13:12:28.966Z,27.83
2022-12-13T13:14:59.008Z,28.48
2022-12-13T13:17:53.639Z,27.23
2022-12-13T13:20:25.817Z,28.00
2022-12-13T13:23:17.478Z,29.15
2022-12-13T13:28:44.434Z,31.42
2022-12-13T13:31:12.823Z,31.17
2022-12-13T13:33:47.198Z,31.23
2022-12-13T13:36:47.876Z,29.13
2022-12-13T13:39:37.369Z,29.40
2022-12-13T13:42:19.283Z,28.40
2022-12-13T13:45:19.173Z,30.40
2022-12-13T13:47:58.895Z,29.60
2022-12-13T13:51:01.726Z,31.10
2022-12-13T13:54:01.243Z,28.75
2022-12-13T13:56:40.298Z,28.65
2022-12-13T13:59:42.286Z,28.30
2022-12-13T14:03:09.084Z,28.05
2022-12-13T14:06:29.027Z,26.60
2022-12-13T14:09:22.774Z,27.75
2022-12-13T14:12:43.161Z,26.17
2022-12-13T14:15:39.497Z,26.70
2022-12-13T14:18:46.015Z,26.98
2022-12-13T14:21:25.528Z,26.40
2022-12-13T14:24:09.426Z,29.52
2022-12-13T14:26:52.580Z,27.58
2022-12-13T14:29:30.655Z,30.20
2022-12-13T14:31:59.508Z,26.88
2022-12-13T14:34:29.541Z,27.05
2022-12-13T14:36:59.410Z,27.33
2022-12-13T14:39:29.591Z,28.55
2022-12-13T14:41:59.457Z,66.82
2022-12-13T14:44:31.426Z,29.83
2022-12-13T14:47:02.009Z,27.17
2022-12-13T14:56:28.773Z,27.95
2022-12-13T14:58:59.116Z,27.05
2022-12-13T15:01:31.442Z,28.42
2022-12-13T15:04:20.542Z,28.23
2022-12-13T15:06:51.784Z,30.33
2022-12-13T15:09:19.979Z,32.55
2022-12-13T15:11:51.941Z,31.33
2022-12-13T15:14:22.677Z,29.10
2022-12-13T15:16:54.627Z,19.10
2022-12-13T15:19:31.060Z,28.85
2022-12-13T15:22:03.907Z,28.17
2022-12-13T15:24:35.407Z,28.85
2022-12-13T15:27:04.474Z,28.37
2022-12-13T15:29:35.481Z,28.30
2022-12-13T15:32:05.736Z,29.50
2022-12-13T15:34:36.470Z,29.65
2022-12-13T15:37:07.792Z,30.63
2022-12-13T15:39:58.725Z,27.98
2022-12-13T15:42:32.345Z,27.73
2022-12-13T15:45:02.528Z,28.60
2022-12-13T15:47:32.850Z,28.33
2022-12-13T15:50:02.888Z,28.27
2022-12-13T15:52:35.557Z,28.40
2022-12-13T15:55:28.846Z,27.77
2022-12-13T15:57:58.736Z,29.40
2022-12-13T16:00:32.301Z,29.27
2022-12-13T16:03:08.935Z,28.35
2022-12-13T16:05:40.018Z,30.77
2022-12-13T16:08:17.468Z,30.15
2022-12-13T16:10:48.635Z,31.83
2022-12-13T16:13:26.695Z,31.92
2022-12-13T16:16:00.488Z,32.22
2022-12-13T16:18:46.643Z,31.08
2022-12-13T16:21:14.695Z,29.42
2022-12-13T16:23:48.711Z,31.10
2022-12-13T16:26:22.462Z,30.23
2022-12-13T16:28:50.476Z,30.60
2022-12-13T16:31:21.065Z,30.45
2022-12-13T16:33:50.785Z,31.42
2022-12-13T16:36:18.850Z,32.08
2022-12-13T16:38:46.922Z,31.17
2022-12-13T16:41:16.421Z,29.60
2022-12-13T16:43:52.822Z,29.30
2022-12-13T16:47:12.341Z,29.42
2022-12-13T16:49:20.581Z,27.25
2022-12-13T16:51:49.286Z,28.70
2022-12-13T16:54:18.992Z,28.23
2022-12-13T16:56:47.086Z,27.65
2022-12-13T16:59:16.085Z,28.50
2022-12-13T17:01:45.487Z,29.88
2022-12-13T17:04:21.003Z,29.17
2022-12-13T17:06:51.206Z,29.85
2022-12-13T17:09:23.465Z,28.05
2022-12-13T17:11:51.275Z,33.72
2022-12-13T17:14:19.319Z,33.67
2022-12-13T17:16:47.481Z,33.42
2022-12-13T17:19:17.523Z,32.05
2022-12-13T17:21:45.688Z,36.03
2022-12-13T17:24:13.709Z,34.33
2022-12-13T17:26:53.982Z,33.30
2022-12-13T17:29:22.913Z,35.05
2022-12-13T17:31:53.508Z,28.98
2022-12-13T17:34:23.114Z,82.72
2022-12-13T17:36:51.252Z,30.73
2022-12-13T17:39:19.763Z,36.47
2022-12-13T17:41:54.747Z,29.42
2022-12-13T17:44:24.506Z,26.00
2022-12-13T17:46:55.099Z,26.65
2022-12-13T17:49:25.439Z,37.80
2022-12-13T17:51:54.508Z,31.23
2022-12-13T17:54:23.713Z,29.40
2022-12-13T17:56:51.892Z,26.23
2022-12-13T17:59:20.099Z,25.85
2022-12-13T18:01:48.365Z,26.75
2022-12-13T18:04:16.824Z,28.58
2022-12-13T18:06:46.465Z,30.42
2022-12-13T18:09:15.034Z,33.85
2022-12-13T18:11:43.397Z,33.88
2022-12-13T18:14:11.445Z,35.38
2022-12-13T18:16:39.682Z,32.13
2022-12-13T18:19:09.455Z,30.35
2022-12-13T18:21:37.947Z,30.73
2022-12-13T18:24:08.147Z,28.83
2022-12-13T18:26:36.199Z,29.60
2022-12-13T18:29:04.947Z,33.75
2022-12-13T18:31:33.312Z,29.98
2022-12-13T18:34:01.609Z,29.50
2022-12-13T18:36:30.031Z,40.85
2022-12-13T18:38:58.175Z,28.63
2022-12-13T18:41:29.152Z,29.50
2022-12-13T18:43:59.492Z,28.70
2022-12-13T18:46:29.158Z,27.25
2022-12-13T18:48:57.867Z,27.02
2022-12-13T18:51:26.772Z,27.58
2022-12-13T18:53:56.932Z,32.72
2022-12-13T18:56:28.938Z,29.10
2022-12-13T18:58:59.594Z,28.23
2022-12-13T19:01:33.257Z,29.90
2022-12-13T19:04:04.165Z,28.35
2022-12-13T19:06:32.114Z,26.10
2022-12-13T19:10:06.882Z,30.60
2022-12-13T19:12:35.123Z,31.00
2022-12-13T19:15:05.123Z,29.05
2022-12-13T19:17:34.187Z,28.63
2022-12-13T19:20:02.378Z,28.98
2022-12-13T19:22:32.989Z,27.02
2022-12-13T19:25:01.090Z,27.20
2022-12-13T19:27:31.132Z,26.80
2022-12-13T19:29:59.501Z,27.27
2022-12-13T19:32:29.821Z,26.75
2022-12-13T19:34:58.157Z,27.60
2022-12-13T19:37:26.127Z,27.63
2022-12-13T19:39:55.758Z,31.05
2022-12-13T19:42:24.369Z,37.67
2022-12-13T19:44:53.506Z,32.65
2022-12-13T19:47:21.636Z,34.17
2022-12-13T19:49:51.749Z,33.63
2022-12-13T19:52:20.150Z,33.67
2022-12-13T19:54:48.137Z,28.00
2022-12-13T19:57:17.390Z,30.42
2022-12-13T19:59:45.937Z,27.30
2022-12-13T20:02:15.531Z,32.10
2022-12-13T20:04:44.789Z,32.28
2022-12-13T20:07:14.161Z,31.42
2022-12-13T20:09:42.370Z,33.25
2022-12-13T20:12:10.234Z,39.35
2022-12-13T20:14:38.303Z,31.92
2022-12-13T20:17:06.580Z,35.25
2022-12-13T20:19:37.286Z,49.38
2022-12-13T20:22:05.626Z,32.55
2022-12-13T20:24:45.868Z,31.77
2022-12-13T20:27:30.377Z,27.83
2022-12-13T20:29:58.595Z,31.73
2022-12-13T20:32:28.924Z,30.30
2022-12-13T20:35:13.313Z,47.90
2022-12-13T20:37:59.789Z,28.33
2022-12-13T20:40:29.574Z,55.28
2022-12-13T20:42:57.679Z,58.20
2022-12-13T20:45:34.949Z,45.35
2022-12-13T20:48:08.757Z,34.47
2022-12-13T20:50:40.288Z,26.95
2022-12-13T20:53:09.770Z,25.10
2022-12-13T20:55:39.365Z,41.40
2022-12-13T20:58:07.366Z,26.27
2022-12-13T21:00:37.585Z,23.77
2022-12-13T21:03:23.532Z,23.63
2022-12-13T21:05:53.802Z,25.05
2022-12-13T21:08:38.879Z,25.17
2022-12-13T21:11:26.919Z,24.02
2022-12-13T21:14:25.960Z,23.35
2022-12-13T21:17:15.163Z,21.75
2022-12-13T21:21:02.383Z,21.20
2022-12-13T21:30:33.144Z,26.02
2022-12-13T21:33:00.997Z,24.65
2022-12-13T21:35:28.866Z,25.10
2022-12-13T21:38:02.153Z,24.50
2022-12-13T21:40:32.941Z,23.02
2022-12-13T21:43:00.710Z,21.67
2022-12-13T21:45:28.586Z,22.13
2022-12-13T21:47:57.987Z,22.45
2022-12-13T21:50:25.791Z,23.20
2022-12-13T21:52:53.617Z,22.58
2022-12-13T21:58:24.654Z,28.25
2022-12-13T22:00:52.774Z,21.63
2022-12-13T22:03:22.077Z,21.98
2022-12-13T22:05:49.848Z,22.98
2022-12-13T22:08:17.710Z,20.20
2022-12-13T22:10:59.370Z,19.67
2022-12-13T22:13:48.423Z,20.20
2022-12-13T22:16:36.274Z,19.60
2022-12-13T22:19:05.725Z,19.85
2022-12-13T22:21:33.879Z,19.98
2022-12-13T22:24:01.766Z,19.58
2022-12-13T22:26:29.709Z,20.55
2022-12-13T22:29:00.710Z,20.50
2022-12-13T22:31:30.066Z,19.48
2022-12-13T22:33:58.490Z,19.60
2022-12-13T22:36:27.856Z,19.33
2022-12-13T22:38:55.706Z,20.45
2022-12-13T22:41:23.606Z,19.58
2022-12-13T22:43:51.586Z,20.15
2022-12-13T22:46:20.951Z,19.30
2022-12-13T22:48:51.755Z,20.05
2022-12-13T22:51:20.531Z,18.92
2022-12-13T22:53:51.480Z,18.63
2022-12-13T22:56:23.102Z,17.33
2022-12-13T22:58:54.325Z,16.58
2022-12-13T23:01:25.178Z,17.63
2022-12-13T23:03:53.660Z,17.00
2022-12-13T23:06:24.444Z,15.93
2022-12-13T23:08:56.292Z,17.63
2022-12-13T23:11:42.424Z,15.75
2022-12-13T23:14:13.149Z,16.23
2022-12-13T23:16:42.501Z,18.48
2022-12-13T23:19:40.511Z,19.05
2022-12-13T23:22:00.519Z,16.85
2022-12-13T23:24:30.026Z,17.13
2022-12-13T23:26:58.060Z,17.13
2022-12-13T23:29:26.160Z,15.65
2022-12-13T23:31:54.047Z,15.65
2022-12-13T23:34:22.016Z,16.10
2022-12-13T23:36:50.024Z,15.90
2022-12-13T23:39:18.116Z,15.40
2022-12-13T23:41:47.780Z,15.65
2022-12-13T23:44:15.639Z,15.88
2022-12-13T23:46:48.196Z,14.93
2022-12-13T23:49:17.162Z,15.68
2022-12-13T23:51:45.290Z,15.35
2022-12-13T23:54:17.931Z,15.05
2022-12-13T23:56:47.601Z,15.35
2022-12-13T23:59:15.901Z,15.35
